sensor_id;sensor_type;location;lat;lon;timestamp;pressure;altitude;pressure_sealevel;temperature;humidity
29909;BME280;36247;51.952;6.146;2023-02-28T00:01:16;103037.63;;;-0.07;100.00
29909;BME280;36247;51.952;6.146;2023-02-28T00:03:42;103036.69;;;-0.08;100.00
29909;BME280;36247;51.952;6.146;2023-02-28T00:06:08;103043.47;;;-0.10;100.00
29909;BME280;36247;51.952;6.146;2023-02-28T00:08:35;103044.31;;;-0.01;100.00
29909;BME280;36247;51.952;6.146;2023-02-28T00:11:05;103039.38;;;0.03;100.00
29909;BME280;36247;51.952;6.146;2023-02-28T00:13:31;103034.16;;;0.03;100.00
29909;BME280;36247;51.952;6.146;2023-02-28T00:16:01;103029.22;;;0.06;100.00
29909;BME280;36247;51.952;6.146;2023-02-28T00:18:27;103037.13;;;0.16;100.00
29909;BME280;36247;51.952;6.146;2023-02-28T00:20:53;103031.47;;;0.11;100.00
29909;BME280;36247;51.952;6.146;2023-02-28T00:23:18;103026.97;;;0.19;100.00
29909;BME280;36247;51.952;6.146;2023-02-28T00:25:43;103026.00;;;0.27;100.00
29909;BME280;36247;51.952;6.146;2023-02-28T00:28:09;103028.03;;;0.21;100.00
29909;BME280;36247;51.952;6.146;2023-02-28T00:30:35;103026.97;;;0.19;100.00
29909;BME280;36247;51.952;6.146;2023-02-28T00:33:03;103030.78;;;0.23;100.00
29909;BME280;36247;51.952;6.146;2023-02-28T00:35:29;103030.53;;;0.30;100.00
29909;BME280;36247;51.952;6.146;2023-02-28T00:37:54;103031.81;;;0.44;100.00
29909;BME280;36247;51.952;6.146;2023-02-28T00:40:20;103025.31;;;0.49;100.00
29909;BME280;36247;51.952;6.146;2023-02-28T00:42:45;103032.16;;;0.38;100.00
29909;BME280;36247;51.952;6.146;2023-02-28T00:45:11;103037.88;;;0.34;100.00
29909;BME280;36247;51.952;6.146;2023-02-28T00:47:37;103038.16;;;0.37;100.00
29909;BME280;36247;51.952;6.146;2023-02-28T00:50:03;103034.69;;;0.47;100.00
29909;BME280;36247;51.952;6.146;2023-02-28T00:52:29;103021.78;;;0.48;100.00
29909;BME280;36247;51.952;6.146;2023-02-28T00:54:55;103031.41;;;0.39;100.00
29909;BME280;36247;51.952;6.146;2023-02-28T00:57:20;103018.63;;;0.42;100.00
29909;BME280;36247;51.952;6.146;2023-02-28T00:59:47;103025.16;;;0.47;100.00
29909;BME280;36247;51.952;6.146;2023-02-28T01:02:12;103018.63;;;0.42;100.00
29909;BME280;36247;51.952;6.146;2023-02-28T01:04:38;103020.56;;;0.34;100.00
29909;BME280;36247;51.952;6.146;2023-02-28T01:07:03;103021.41;;;0.25;100.00
29909;BME280;36247;51.952;6.146;2023-02-28T01:09:29;103031.13;;;0.36;100.00
29909;BME280;36247;51.952;6.146;2023-02-28T01:11:54;103029.84;;;0.41;100.00
29909;BME280;36247;51.952;6.146;2023-02-28T01:14:20;103019.13;;;0.38;100.00
29909;BME280;36247;51.952;6.146;2023-02-28T01:16:45;103023.03;;;0.43;100.00
29909;BME280;36247;51.952;6.146;2023-02-28T01:19:11;103027.56;;;0.35;100.00
29909;BME280;36247;51.952;6.146;2023-02-28T01:21:37;103029.19;;;0.44;100.00
29909;BME280;36247;51.952;6.146;2023-02-28T01:24:03;103041.69;;;0.38;100.00
29909;BME280;36247;51.952;6.146;2023-02-28T01:26:29;103047.50;;;0.54;100.00
29909;BME280;36247;51.952;6.146;2023-02-28T01:28:55;103038.25;;;0.58;100.00
29909;BME280;36247;51.952;6.146;2023-02-28T01:31:21;103044.78;;;0.52;100.00
29909;BME280;36247;51.952;6.146;2023-02-28T01:33:48;103040.22;;;0.60;100.00
29909;BME280;36247;51.952;6.146;2023-02-28T01:36:19;103048.00;;;0.50;100.00
29909;BME280;36247;51.952;6.146;2023-02-28T01:38:46;103028.84;;;0.49;100.00
29909;BME280;36247;51.952;6.146;2023-02-28T01:41:18;103035.09;;;0.51;100.00
29909;BME280;36247;51.952;6.146;2023-02-28T01:46:12;103028.50;;;0.65;100.00
29909;BME280;36247;51.952;6.146;2023-02-28T01:48:41;103033.03;;;0.58;100.00
29909;BME280;36247;51.952;6.146;2023-02-28T01:51:17;103020.03;;;0.68;100.00
29909;BME280;36247;51.952;6.146;2023-02-28T01:53:47;103027.88;;;0.68;100.00
29909;BME280;36247;51.952;6.146;2023-02-28T01:56:17;103016.41;;;0.66;100.00
29909;BME280;36247;51.952;6.146;2023-02-28T01:58:49;103021.09;;;0.70;100.00
29909;BME280;36247;51.952;6.146;2023-02-28T02:01:16;103026.06;;;0.77;100.00
29909;BME280;36247;51.952;6.146;2023-02-28T02:03:48;103025.16;;;0.77;100.00
29909;BME280;36247;51.952;6.146;2023-02-28T02:06:34;103029.31;;;0.75;100.00
29909;BME280;36247;51.952;6.146;2023-02-28T02:09:01;103031.44;;;0.79;100.00
29909;BME280;36247;51.952;6.146;2023-02-28T02:11:28;103026.06;;;0.77;100.00
29909;BME280;36247;51.952;6.146;2023-02-28T02:14:12;103014.38;;;0.82;100.00
29909;BME280;36247;51.952;6.146;2023-02-28T02:22:21;103022.97;;;0.81;100.00
29909;BME280;36247;51.952;6.146;2023-02-28T02:33:25;103029.75;;;0.79;100.00
29909;BME280;36247;51.952;6.146;2023-02-28T02:36:35;103021.38;;;0.83;100.00
29909;BME280;36247;51.952;6.146;2023-02-28T02:42:21;103018.78;;;0.83;100.00
29909;BME280;36247;51.952;6.146;2023-02-28T02:44:55;103023.50;;;0.87;100.00
29909;BME280;36247;51.952;6.146;2023-02-28T02:47:26;103011.22;;;0.86;100.00
29909;BME280;36247;51.952;6.146;2023-02-28T02:49:55;103011.88;;;0.84;100.00
29909;BME280;36247;51.952;6.146;2023-02-28T02:52:27;103019.31;;;0.90;100.00
29909;BME280;36247;51.952;6.146;2023-02-28T02:54:56;103016.06;;;0.92;100.00
29909;BME280;36247;51.952;6.146;2023-02-28T02:57:27;103019.19;;;0.88;100.00
29909;BME280;36247;51.952;6.146;2023-02-28T02:59:56;103007.31;;;0.81;100.00
29909;BME280;36247;51.952;6.146;2023-02-28T03:02:23;103033.06;;;0.97;100.00
29909;BME280;36247;51.952;6.146;2023-02-28T03:04:52;103025.88;;;0.95;100.00
29909;BME280;36247;51.952;6.146;2023-02-28T03:07:20;103027.72;;;0.96;100.00
29909;BME280;36247;51.952;6.146;2023-02-28T03:09:56;103019.09;;;0.97;100.00
29909;BME280;36247;51.952;6.146;2023-02-28T03:12:39;103018.72;;;1.02;100.00
29909;BME280;36247;51.952;6.146;2023-02-28T03:15:40;103017.94;;;1.03;100.00
29909;BME280;36247;51.952;6.146;2023-02-28T03:18:02;103020.44;;;1.12;100.00
29909;BME280;36247;51.952;6.146;2023-02-28T03:20:48;103015.75;;;1.18;100.00
29909;BME280;36247;51.952;6.146;2023-02-28T03:23:21;103027.44;;;1.03;100.00
29909;BME280;36247;51.952;6.146;2023-02-28T03:28:31;103015.50;;;1.15;100.00
29909;BME280;36247;51.952;6.146;2023-02-28T03:34:24;103005.81;;;1.14;100.00
29909;BME280;36247;51.952;6.146;2023-02-28T03:36:55;103007.25;;;1.11;100.00
29909;BME280;36247;51.952;6.146;2023-02-28T03:39:27;103016.47;;;0.97;100.00
29909;BME280;36247;51.952;6.146;2023-02-28T03:42:00;103013.50;;;1.02;100.00
29909;BME280;36247;51.952;6.146;2023-02-28T03:44:29;103008.13;;;1.01;100.00
29909;BME280;36247;51.952;6.146;2023-02-28T03:49:30;103008.28;;;1.13;100.00
29909;BME280;36247;51.952;6.146;2023-02-28T03:52:02;103004.13;;;1.15;100.00
29909;BME280;36247;51.952;6.146;2023-02-28T03:54:31;103008.66;;;1.07;100.00
29909;BME280;36247;51.952;6.146;2023-02-28T04:00:02;102995.09;;;1.11;100.00
29909;BME280;36247;51.952;6.146;2023-02-28T04:02:37;103003.47;;;1.17;100.00
29909;BME280;36247;51.952;6.146;2023-02-28T04:05:05;103005.31;;;1.18;100.00
29909;BME280;36247;51.952;6.146;2023-02-28T04:07:31;102995.63;;;1.17;100.00
29909;BME280;36247;51.952;6.146;2023-02-28T04:09:57;102998.50;;;1.20;100.00
29909;BME280;36247;51.952;6.146;2023-02-28T04:12:23;102997.75;;;1.21;100.00
29909;BME280;36247;51.952;6.146;2023-02-28T04:14:49;102997.50;;;1.29;100.00
29909;BME280;36247;51.952;6.146;2023-02-28T04:17:15;102996.97;;;1.22;100.00
29909;BME280;36247;51.952;6.146;2023-02-28T04:19:40;102997.22;;;1.26;100.00
29909;BME280;36247;51.952;6.146;2023-02-28T04:22:08;102996.00;;;1.01;100.00
29909;BME280;36247;51.952;6.146;2023-02-28T04:24:34;102999.97;;;1.17;100.00
29909;BME280;36247;51.952;6.146;2023-02-28T04:26:59;102995.78;;;1.19;100.00
29909;BME280;36247;51.952;6.146;2023-02-28T04:29:28;103005.56;;;1.11;100.00
29909;BME280;36247;51.952;6.146;2023-02-28T04:31:54;103003.59;;;1.19;100.00
29909;BME280;36247;51.952;6.146;2023-02-28T04:34:23;103000.72;;;1.16;100.00
29909;BME280;36247;51.952;6.146;2023-02-28T04:36:49;102993.66;;;1.15;100.00
29909;BME280;36247;51.952;6.146;2023-02-28T04:39:16;102998.66;;;1.22;100.00
29909;BME280;36247;51.952;6.146;2023-02-28T04:41:44;102996.97;;;1.22;100.00
29909;BME280;36247;51.952;6.146;2023-02-28T04:44:10;102995.78;;;1.19;100.00
29909;BME280;36247;51.952;6.146;2023-02-28T04:46:35;103005.28;;;1.08;100.00
29909;BME280;36247;51.952;6.146;2023-02-28T04:49:01;103010.47;;;0.98;100.00
29909;BME280;36247;51.952;6.146;2023-02-28T04:51:26;103003.28;;;0.95;100.00
29909;BME280;36247;51.952;6.146;2023-02-28T04:53:52;103006.59;;;1.13;100.00
29909;BME280;36247;51.952;6.146;2023-02-28T04:56:18;103011.41;;;1.09;100.00
29909;BME280;36247;51.952;6.146;2023-02-28T04:58:44;103017.03;;;1.13;100.00
29909;BME280;36247;51.952;6.146;2023-02-28T05:03:42;103015.88;;;1.10;100.00
29909;BME280;36247;51.952;6.146;2023-02-28T05:06:09;103014.03;;;1.09;100.00
29909;BME280;36247;51.952;6.146;2023-02-28T05:08:35;103020.44;;;1.12;100.00
29909;BME280;36247;51.952;6.146;2023-02-28T05:11:01;103017.56;;;1.09;100.00
29909;BME280;36247;51.952;6.146;2023-02-28T05:13:27;103019.13;;;1.07;100.00
29909;BME280;36247;51.952;6.146;2023-02-28T05:15:53;103027.22;;;1.10;100.00
29909;BME280;36247;51.952;6.146;2023-02-28T05:18:18;103019.38;;;1.10;100.00
29909;BME280;36247;51.952;6.146;2023-02-28T05:20:44;103012.34;;;1.19;100.00
29909;BME280;36247;51.952;6.146;2023-02-28T05:23:13;103017.94;;;1.03;100.00
29909;BME280;36247;51.952;6.146;2023-02-28T05:25:39;103019.63;;;1.13;100.00
29909;BME280;36247;51.952;6.146;2023-02-28T05:28:05;103017.72;;;1.11;100.00
29909;BME280;36247;51.952;6.146;2023-02-28T05:30:31;103016.22;;;1.04;100.00
29909;BME280;36247;51.952;6.146;2023-02-28T05:32:57;103013.00;;;1.07;100.00
29909;BME280;36247;51.952;6.146;2023-02-28T05:35:23;103018.06;;;1.05;100.00
29909;BME280;36247;51.952;6.146;2023-02-28T05:37:49;103022.38;;;0.94;100.00
29909;BME280;36247;51.952;6.146;2023-02-28T05:40:16;103025.59;;;0.92;100.00
29909;BME280;36247;51.952;6.146;2023-02-28T05:42:41;103036.44;;;0.96;100.00
29909;BME280;36247;51.952;6.146;2023-02-28T05:45:08;103035.41;;;0.94;100.00
29909;BME280;36247;51.952;6.146;2023-02-28T05:47:34;103037.19;;;0.85;100.00
29909;BME280;36247;51.952;6.146;2023-02-28T05:50:00;103037.72;;;0.81;100.00
29909;BME280;36247;51.952;6.146;2023-02-28T05:52:26;103036.88;;;0.72;100.00
29909;BME280;36247;51.952;6.146;2023-02-28T05:54:52;103035.84;;;0.69;100.00
29909;BME280;36247;51.952;6.146;2023-02-28T05:57:17;103052.78;;;0.75;100.00
29909;BME280;36247;51.952;6.146;2023-02-28T05:59:42;103050.34;;;0.76;100.00
29909;BME280;36247;51.952;6.146;2023-02-28T06:02:12;103054.22;;;0.71;100.00
29909;BME280;36247;51.952;6.146;2023-02-28T06:04:38;103048.28;;;0.82;100.00
29909;BME280;36247;51.952;6.146;2023-02-28T06:07:06;103049.06;;;0.81;100.00
29909;BME280;36247;51.952;6.146;2023-02-28T06:09:31;103046.94;;;0.77;100.00
29909;BME280;36247;51.952;6.146;2023-02-28T06:11:58;103057.09;;;0.74;100.00
29909;BME280;36247;51.952;6.146;2023-02-28T06:14:23;103063.97;;;0.63;100.00
29909;BME280;36247;51.952;6.146;2023-02-28T06:16:49;103056.16;;;0.63;100.00
29909;BME280;36247;51.952;6.146;2023-02-28T06:19:14;103059.41;;;0.61;100.00
29909;BME280;36247;51.952;6.146;2023-02-28T06:21:40;103066.09;;;0.67;100.00
29909;BME280;36247;51.952;6.146;2023-02-28T06:24:06;103061.91;;;0.69;100.00
29909;BME280;36247;51.952;6.146;2023-02-28T06:26:32;103071.03;;;0.64;100.00
29909;BME280;36247;51.952;6.146;2023-02-28T06:28:57;103080.31;;;0.71;100.00
29909;BME280;36247;51.952;6.146;2023-02-28T06:31:22;103077.34;;;0.77;100.00
29909;BME280;36247;51.952;6.146;2023-02-28T06:33:49;103074.88;;;0.78;100.00
29909;BME280;36247;51.952;6.146;2023-02-28T06:36:16;103070.56;;;0.79;100.00
29909;BME280;36247;51.952;6.146;2023-02-28T06:38:42;103070.69;;;0.80;100.00
29909;BME280;36247;51.952;6.146;2023-02-28T06:41:09;103071.09;;;0.85;100.00
29909;BME280;36247;51.952;6.146;2023-02-28T06:43:37;103082.88;;;0.90;100.00
29909;BME280;36247;51.952;6.146;2023-02-28T06:46:05;103073.63;;;0.94;100.00
29909;BME280;36247;51.952;6.146;2023-02-28T06:48:31;103071.50;;;0.90;100.00
29909;BME280;36247;51.952;6.146;2023-02-28T06:51:09;103086.41;;;0.91;100.00
29909;BME280;36247;51.952;6.146;2023-02-28T06:53:35;103090.84;;;0.92;100.00
29909;BME280;36247;51.952;6.146;2023-02-28T06:56:04;103075.06;;;0.90;100.00
29909;BME280;36247;51.952;6.146;2023-02-28T06:58:31;103083.75;;;0.80;100.00
29909;BME280;36247;51.952;6.146;2023-02-28T07:00:57;103088.53;;;0.95;100.00
29909;BME280;36247;51.952;6.146;2023-02-28T07:03:23;103082.84;;;1.09;100.00
29909;BME280;36247;51.952;6.146;2023-02-28T07:05:48;103085.44;;;1.19;100.00
29909;BME280;36247;51.952;6.146;2023-02-28T07:08:14;103090.66;;;1.19;100.00
29909;BME280;36247;51.952;6.146;2023-02-28T07:10:40;103088.66;;;1.36;100.00
29909;BME280;36247;51.952;6.146;2023-02-28T07:13:06;103087.38;;;1.51;100.00
29909;BME280;36247;51.952;6.146;2023-02-28T07:15:33;103084.63;;;1.60;100.00
29909;BME280;36247;51.952;6.146;2023-02-28T07:17:59;103085.03;;;1.54;100.00
29909;BME280;36247;51.952;6.146;2023-02-28T07:20:24;103085.41;;;1.59;100.00
29909;BME280;36247;51.952;6.146;2023-02-28T07:22:50;103087.91;;;1.68;100.00
29909;BME280;36247;51.952;6.146;2023-02-28T07:25:23;103094.69;;;1.86;100.00
29909;BME280;36247;51.952;6.146;2023-02-28T07:27:48;103091.44;;;1.89;100.00
29909;BME280;36247;51.952;6.146;2023-02-28T07:30:14;103084.25;;;1.86;100.00
29909;BME280;36247;51.952;6.146;2023-02-28T07:32:40;103105.53;;;1.91;100.00
29909;BME280;36247;51.952;6.146;2023-02-28T07:35:06;103096.28;;;2.05;100.00
29909;BME280;36247;51.952;6.146;2023-02-28T07:37:31;103103.06;;;2.23;100.00
29909;BME280;36247;51.952;6.146;2023-02-28T07:40:03;103099.41;;;2.32;100.00
29909;BME280;36247;51.952;6.146;2023-02-28T07:42:31;103099.63;;;2.45;100.00
29909;BME280;36247;51.952;6.146;2023-02-28T07:44:57;103096.22;;;2.46;100.00
29909;BME280;36247;51.952;6.146;2023-02-28T07:47:24;103102.53;;;2.70;100.00
29909;BME280;36247;51.952;6.146;2023-02-28T07:49:50;103102.47;;;2.91;100.00
29909;BME280;36247;51.952;6.146;2023-02-28T07:52:15;103097.53;;;3.16;100.00
29909;BME280;36247;51.952;6.146;2023-02-28T07:54:40;103103.25;;;3.22;100.00
29909;BME280;36247;51.952;6.146;2023-02-28T07:57:06;103101.88;;;3.15;100.00
29909;BME280;36247;51.952;6.146;2023-02-28T07:59:31;103106.91;;;3.02;100.00
29909;BME280;36247;51.952;6.146;2023-02-28T08:01:57;103106.25;;;2.62;100.00
29909;BME280;36247;51.952;6.146;2023-02-28T08:04:23;103098.44;;;2.52;100.00
29909;BME280;36247;51.952;6.146;2023-02-28T08:06:49;103107.06;;;2.51;100.00
29909;BME280;36247;51.952;6.146;2023-02-28T08:09:17;103102.09;;;3.18;100.00
29909;BME280;36247;51.952;6.146;2023-02-28T08:11:42;103113.78;;;3.12;100.00
29909;BME280;36247;51.952;6.146;2023-02-28T08:14:08;103120.94;;;2.92;100.00
29909;BME280;36247;51.952;6.146;2023-02-28T08:16:33;103108.88;;;3.05;100.00
29909;BME280;36247;51.952;6.146;2023-02-28T08:18:59;103115.38;;;3.10;100.00
29909;BME280;36247;51.952;6.146;2023-02-28T08:21:24;103108.00;;;3.16;100.00
29909;BME280;36247;51.952;6.146;2023-02-28T08:23:50;103103.88;;;3.30;100.00
29909;BME280;36247;51.952;6.146;2023-02-28T08:26:17;103103.75;;;3.50;89.81
29909;BME280;36247;51.952;6.146;2023-02-28T08:28:42;103102.19;;;3.52;98.68
29909;BME280;36247;51.952;6.146;2023-02-28T08:31:11;103103.88;;;3.52;92.79
29909;BME280;36247;51.952;6.146;2023-02-28T08:33:39;103110.34;;;3.67;87.17
29909;BME280;36247;51.952;6.146;2023-02-28T08:36:05;103104.97;;;3.66;89.16
29909;BME280;36247;51.952;6.146;2023-02-28T08:38:30;103108.25;;;3.63;77.66
29909;BME280;36247;51.952;6.146;2023-02-28T08:41:01;103117.41;;;3.24;90.13
29909;BME280;36247;51.952;6.146;2023-02-28T08:43:28;103105.94;;;3.56;87.62
29909;BME280;36247;51.952;6.146;2023-02-28T08:45:56;103101.72;;;3.58;90.49
29909;BME280;36247;51.952;6.146;2023-02-28T08:48:26;103100.91;;;3.81;83.76
29909;BME280;36247;51.952;6.146;2023-02-28T08:51:04;103099.00;;;3.91;85.39
29909;BME280;36247;51.952;6.146;2023-02-28T08:53:30;103097.53;;;3.94;77.57
29909;BME280;36247;51.952;6.146;2023-02-28T08:56:04;103101.16;;;4.30;75.66
29909;BME280;36247;51.952;6.146;2023-02-28T08:58:31;103099.50;;;3.75;72.35
29909;BME280;36247;51.952;6.146;2023-02-28T09:00:57;103100.88;;;3.69;73.79
29909;BME280;36247;51.952;6.146;2023-02-28T09:03:23;103102.81;;;4.18;70.88
29909;BME280;36247;51.952;6.146;2023-02-28T09:05:56;103107.53;;;4.34;71.92
29909;BME280;36247;51.952;6.146;2023-02-28T09:08:22;103105.84;;;3.88;81.33
29909;BME280;36247;51.952;6.146;2023-02-28T09:10:48;103100.59;;;4.58;72.83
29909;BME280;36247;51.952;6.146;2023-02-28T09:13:14;103099.34;;;4.65;72.56
29909;BME280;36247;51.952;6.146;2023-02-28T09:15:39;103109.25;;;4.33;69.46
29909;BME280;36247;51.952;6.146;2023-02-28T09:18:05;103104.38;;;4.50;69.35
29909;BME280;36247;51.952;6.146;2023-02-28T09:20:30;103110.16;;;4.46;66.68
29909;BME280;36247;51.952;6.146;2023-02-28T09:22:55;103102.75;;;4.52;59.51
29909;BME280;36247;51.952;6.146;2023-02-28T09:25:21;103105.66;;;4.21;55.10
29909;BME280;36247;51.952;6.146;2023-02-28T09:27:46;103104.63;;;4.07;57.67
29909;BME280;36247;51.952;6.146;2023-02-28T09:30:12;103102.59;;;4.15;57.15
29909;BME280;36247;51.952;6.146;2023-02-28T09:32:38;103102.47;;;4.13;56.30
29909;BME280;36247;51.952;6.146;2023-02-28T09:35:04;103100.09;;;4.28;53.22
29909;BME280;36247;51.952;6.146;2023-02-28T09:37:29;103091.66;;;4.20;53.79
29909;BME280;36247;51.952;6.146;2023-02-28T09:39:56;103097.81;;;4.33;53.67
29909;BME280;36247;51.952;6.146;2023-02-28T09:42:28;103105.56;;;4.31;54.90
29909;BME280;36247;51.952;6.146;2023-02-28T09:44:56;103100.91;;;4.51;54.25
29909;BME280;36247;51.952;6.146;2023-02-28T09:49:49;103093.53;;;4.57;54.53
29909;BME280;36247;51.952;6.146;2023-02-28T09:52:18;103098.41;;;4.29;51.73
29909;BME280;36247;51.952;6.146;2023-02-28T09:54:45;103099.94;;;4.03;51.71
29909;BME280;36247;51.952;6.146;2023-02-28T09:57:19;103097.78;;;3.97;53.37
29909;BME280;36247;51.952;6.146;2023-02-28T10:00:00;103092.81;;;4.24;55.59
29909;BME280;36247;51.952;6.146;2023-02-28T10:05:14;103093.25;;;4.66;55.23
29909;BME280;36247;51.952;6.146;2023-02-28T10:10:36;103084.78;;;5.05;55.51
29909;BME280;36247;51.952;6.146;2023-02-28T10:13:17;103092.13;;;4.86;51.16
29909;BME280;36247;51.952;6.146;2023-02-28T10:15:47;103087.91;;;5.62;54.47
29909;BME280;36247;51.952;6.146;2023-02-28T10:18:18;103083.34;;;5.85;54.70
29909;BME280;36247;51.952;6.146;2023-02-28T10:20:46;103083.19;;;6.47;51.02
29909;BME280;36247;51.952;6.146;2023-02-28T10:23:20;103083.22;;;6.60;49.20
29909;BME280;36247;51.952;6.146;2023-02-28T10:25:53;103066.22;;;7.38;48.20
29909;BME280;36247;51.952;6.146;2023-02-28T10:28:20;103071.81;;;8.01;45.89
29909;BME280;36247;51.952;6.146;2023-02-28T10:30:48;103057.44;;;8.56;44.87
29909;BME280;36247;51.952;6.146;2023-02-28T10:33:29;103063.91;;;8.16;41.95
29909;BME280;36247;51.952;6.146;2023-02-28T10:35:55;103063.88;;;7.43;43.57
29909;BME280;36247;51.952;6.146;2023-02-28T10:38:33;103057.34;;;8.39;44.22
29909;BME280;36247;51.952;6.146;2023-02-28T10:41:14;103051.75;;;9.27;42.36
29909;BME280;36247;51.952;6.146;2023-02-28T10:43:41;103059.63;;;8.63;42.32
29909;BME280;36247;51.952;6.146;2023-02-28T10:48:50;103056.00;;;9.75;43.27
29909;BME280;36247;51.952;6.146;2023-02-28T10:51:22;103057.47;;;10.02;42.80
29909;BME280;36247;51.952;6.146;2023-02-28T10:53:50;103058.47;;;10.22;42.26
29909;BME280;36247;51.952;6.146;2023-02-28T10:56:22;103045.38;;;10.07;41.52
29909;BME280;36247;51.952;6.146;2023-02-28T11:01:24;103041.47;;;10.89;40.30
29909;BME280;36247;51.952;6.146;2023-02-28T11:03:51;103043.16;;;10.87;40.31
29909;BME280;36247;51.952;6.146;2023-02-28T11:06:26;103040.81;;;10.75;41.12
29909;BME280;36247;51.952;6.146;2023-02-28T11:08:57;103036.91;;;10.33;41.13
29909;BME280;36247;51.952;6.146;2023-02-28T11:11:25;103029.22;;;10.91;38.48
29909;BME280;36247;51.952;6.146;2023-02-28T11:13:54;103038.94;;;10.37;38.50
29909;BME280;36247;51.952;6.146;2023-02-28T11:16:21;103025.84;;;10.96;39.47
29909;BME280;36247;51.952;6.146;2023-02-28T11:18:50;103025.34;;;10.85;39.90
29909;BME280;36247;51.952;6.146;2023-02-28T11:21:19;103029.06;;;11.45;39.01
29909;BME280;36247;51.952;6.146;2023-02-28T11:23:45;103028.63;;;11.56;40.33
29909;BME280;36247;51.952;6.146;2023-02-28T11:26:12;103027.91;;;11.40;39.60
29909;BME280;36247;51.952;6.146;2023-02-28T11:28:40;103029.53;;;11.56;39.08
29909;BME280;36247;51.952;6.146;2023-02-28T11:33:48;103021.94;;;12.05;37.71
29909;BME280;36247;51.952;6.146;2023-02-28T11:36:22;103031.19;;;11.74;39.10
29909;BME280;36247;51.952;6.146;2023-02-28T11:38:55;103018.63;;;12.10;38.57
29909;BME280;36247;51.952;6.146;2023-02-28T11:44:20;103021.63;;;11.38;38.15
29909;BME280;36247;51.952;6.146;2023-02-28T11:46:58;103019.81;;;11.37;38.90
29909;BME280;36247;51.952;6.146;2023-02-28T11:52:53;103008.44;;;11.80;36.25
29909;BME280;36247;51.952;6.146;2023-02-28T11:58:23;103019.16;;;12.23;37.44
29909;BME280;36247;51.952;6.146;2023-02-28T12:03:31;103011.75;;;12.15;35.43
29909;BME280;36247;51.952;6.146;2023-02-28T12:06:23;103003.31;;;12.69;36.64
29909;BME280;36247;51.952;6.146;2023-02-28T12:11:56;102991.78;;;12.25;34.46
29909;BME280;36247;51.952;6.146;2023-02-28T12:20:24;102976.06;;;11.89;37.63
29909;BME280;36247;51.952;6.146;2023-02-28T12:23:19;102976.47;;;11.77;37.12
29909;BME280;36247;51.952;6.146;2023-02-28T12:28:36;102981.34;;;12.09;37.55
29909;BME280;36247;51.952;6.146;2023-02-28T12:31:08;102978.75;;;12.10;39.29
29909;BME280;36247;51.952;6.146;2023-02-28T12:33:40;102976.59;;;11.40;39.18
29909;BME280;36247;51.952;6.146;2023-02-28T12:36:11;102979.03;;;11.55;39.24
29909;BME280;36247;51.952;6.146;2023-02-28T12:38:41;102968.72;;;11.62;38.26
29909;BME280;36247;51.952;6.146;2023-02-28T12:41:20;102968.28;;;10.93;37.69
29909;BME280;36247;51.952;6.146;2023-02-28T12:43:55;102967.53;;;10.40;39.76
29909;BME280;36247;51.952;6.146;2023-02-28T12:46:25;102964.94;;;9.37;37.22
29909;BME280;36247;51.952;6.146;2023-02-28T12:49:00;102973.88;;;9.73;41.98
29909;BME280;36247;51.952;6.146;2023-02-28T12:51:30;102958.78;;;9.70;40.65
29909;BME280;36247;51.952;6.146;2023-02-28T12:54:18;102954.50;;;9.56;39.91
29909;BME280;36247;51.952;6.146;2023-02-28T12:57:10;102959.09;;;9.26;38.90
29909;BME280;36247;51.952;6.146;2023-02-28T13:00:00;102958.19;;;9.60;40.05
29909;BME280;36247;51.952;6.146;2023-02-28T13:05:39;102948.69;;;9.12;43.27
29909;BME280;36247;51.952;6.146;2023-02-28T13:08:32;102948.91;;;9.33;43.02
29909;BME280;36247;51.952;6.146;2023-02-28T13:11:01;102949.56;;;9.46;43.55
29909;BME280;36247;51.952;6.146;2023-02-28T13:13:29;102940.91;;;9.66;41.83
29909;BME280;36247;51.952;6.146;2023-02-28T13:16:08;102941.81;;;8.83;38.92
29909;BME280;36247;51.952;6.146;2023-02-28T13:18:43;102940.59;;;9.09;41.11
29909;BME280;36247;51.952;6.146;2023-02-28T13:21:23;102937.22;;;9.46;43.95
29909;BME280;36247;51.952;6.146;2023-02-28T13:40:22;102924.75;;;9.78;42.26
29909;BME280;36247;51.952;6.146;2023-02-28T13:42:48;102928.28;;;9.79;39.31
29909;BME280;36247;51.952;6.146;2023-02-28T13:45:24;102928.09;;;9.92;39.13
29909;BME280;36247;51.952;6.146;2023-02-28T13:47:56;102920.22;;;10.12;40.51
29909;BME280;36247;51.952;6.146;2023-02-28T13:59:03;102917.44;;;10.64;40.28
29909;BME280;36247;51.952;6.146;2023-02-28T14:04:37;102910.59;;;12.11;39.25
29909;BME280;36247;51.952;6.146;2023-02-28T14:07:07;102898.16;;;12.32;37.35
29909;BME280;36247;51.952;6.146;2023-02-28T14:09:39;102902.44;;;12.98;37.07
29909;BME280;36247;51.952;6.146;2023-02-28T14:12:54;102902.59;;;13.03;36.81
29909;BME280;36247;51.952;6.146;2023-02-28T14:15:39;102899.53;;;13.16;36.64
29909;BME280;36247;51.952;6.146;2023-02-28T14:18:18;102891.50;;;13.15;36.90
29909;BME280;36247;51.952;6.146;2023-02-28T14:20:47;102888.38;;;13.27;37.28
29909;BME280;36247;51.952;6.146;2023-02-28T14:26:06;102891.06;;;13.02;35.92
29909;BME280;36247;51.952;6.146;2023-02-28T14:29:07;102886.66;;;13.27;36.17
29909;BME280;36247;51.952;6.146;2023-02-28T14:36:44;102875.78;;;14.00;34.75
29909;BME280;36247;51.952;6.146;2023-02-28T14:39:15;102882.22;;;14.06;35.50
29909;BME280;36247;51.952;6.146;2023-02-28T14:41:43;102886.72;;;14.09;34.80
29909;BME280;36247;51.952;6.146;2023-02-28T14:46:41;102896.06;;;13.69;34.70
29909;BME280;36247;51.952;6.146;2023-02-28T14:49:20;102879.66;;;13.82;35.09
29909;BME280;36247;51.952;6.146;2023-02-28T14:51:49;102879.28;;;13.71;35.80
29909;BME280;36247;51.952;6.146;2023-02-28T14:54:24;102884.72;;;13.74;35.53
29909;BME280;36247;51.952;6.146;2023-02-28T14:56:50;102877.56;;;13.99;36.44
29909;BME280;36247;51.952;6.146;2023-02-28T14:59:42;102888.56;;;14.10;35.71